createdAt,value
2019-05-26T00:01:23.882Z,12.50
2019-05-26T00:04:27.530Z,12.42
2019-05-26T00:07:31.267Z,12.25
2019-05-26T00:10:34.864Z,12.13
2019-05-26T00:13:38.409Z,12.14
2019-05-26T00:16:42.042Z,11.95
2019-05-26T00:19:45.563Z,11.83
2019-05-26T00:22:49.165Z,11.89
2019-05-26T00:25:52.730Z,11.91
2019-05-26T00:28:56.300Z,11.90
2019-05-26T00:31:59.864Z,11.91
2019-05-26T00:35:04.506Z,11.69
2019-05-26T00:38:08.054Z,11.78
2019-05-26T00:41:11.713Z,11.61
2019-05-26T00:44:15.321Z,11.61
2019-05-26T00:47:18.894Z,11.70
2019-05-26T00:50:24.071Z,11.59
2019-05-26T00:53:27.774Z,11.58
2019-05-26T00:56:31.425Z,11.38
2019-05-26T00:59:34.979Z,11.44
2019-05-26T01:02:38.736Z,11.33
2019-05-26T01:05:42.896Z,11.21
2019-05-26T01:08:46.448Z,11.31
2019-05-26T01:11:50.029Z,11.21
2019-05-26T01:14:53.571Z,11.00
2019-05-26T01:17:58.905Z,10.95
2019-05-26T01:21:02.453Z,10.99
2019-05-26T01:24:06.086Z,11.05
2019-05-26T01:27:09.657Z,10.95
2019-05-26T01:30:13.649Z,10.91
2019-05-26T01:33:17.333Z,10.90
2019-05-26T01:36:21.123Z,10.98
2019-05-26T01:39:24.784Z,11.00
2019-05-26T01:42:28.375Z,11.01
2019-05-26T01:45:31.995Z,10.94
2019-05-26T01:48:35.639Z,10.77
2019-05-26T01:51:39.211Z,10.83
2019-05-26T01:54:42.804Z,10.83
2019-05-26T01:57:46.366Z,10.76
2019-05-26T02:00:50.026Z,10.88
2019-05-26T02:03:53.632Z,10.98
2019-05-26T02:06:57.214Z,10.94
2019-05-26T02:10:00.835Z,10.98
2019-05-26T02:13:04.671Z,10.96
2019-05-26T02:16:08.176Z,10.95
2019-05-26T02:19:11.833Z,10.85
2019-05-26T02:22:19.059Z,10.66
2019-05-26T02:25:23.093Z,10.74
2019-05-26T02:28:26.599Z,10.81
2019-05-26T02:31:30.189Z,10.86
2019-05-26T02:34:33.740Z,10.89
2019-05-26T02:37:37.413Z,10.83
2019-05-26T02:40:40.944Z,10.69
2019-05-26T02:43:46.218Z,10.62
2019-05-26T02:46:49.790Z,10.57
2019-05-26T02:49:54.965Z,10.54
2019-05-26T02:52:58.510Z,10.65
2019-05-26T02:56:02.319Z,10.47
2019-05-26T02:59:05.947Z,10.40
2019-05-26T03:02:11.087Z,10.18
2019-05-26T03:05:15.305Z,10.29
2019-05-26T03:08:18.842Z,10.34
2019-05-26T03:11:24.089Z,10.34
2019-05-26T03:14:29.819Z,10.31
2019-05-26T03:17:35.468Z,10.28
2019-05-26T03:20:40.710Z,10.20
2019-05-26T03:23:47.213Z,10.34
2019-05-26T03:26:50.847Z,10.35
2019-05-26T03:29:54.560Z,10.40
2019-05-26T03:32:58.051Z,10.39
2019-05-26T03:36:01.612Z,10.24
2019-05-26T03:39:08.480Z,10.19
2019-05-26T03:42:12.184Z,10.25
2019-05-26T03:45:27.512Z,10.32
2019-05-26T03:48:31.159Z,10.52
2019-05-26T03:51:34.934Z,10.64
2019-05-26T03:54:40.138Z,10.75
2019-05-26T03:57:45.268Z,10.84
2019-05-26T04:00:53.376Z,11.10
2019-05-26T04:03:56.934Z,10.96
2019-05-26T04:07:00.467Z,11.03
2019-05-26T04:10:06.504Z,10.84
2019-05-26T04:13:11.740Z,11.08
2019-05-26T04:16:15.277Z,11.48
2019-05-26T04:19:26.161Z,11.60
2019-05-26T04:22:29.703Z,11.82
2019-05-26T04:25:34.791Z,11.68
2019-05-26T04:28:38.508Z,11.87
2019-05-26T04:31:42.128Z,12.05
2019-05-26T04:34:47.336Z,11.81
2019-05-26T04:37:50.907Z,12.02
2019-05-26T04:40:54.441Z,12.92
2019-05-26T04:43:58.021Z,13.59
2019-05-26T04:47:01.713Z,13.65
2019-05-26T04:50:06.562Z,13.71
2019-05-26T04:53:10.154Z,13.38
2019-05-26T04:56:13.802Z,14.06
2019-05-26T04:59:17.392Z,14.46
2019-05-26T05:02:20.974Z,14.62
2019-05-26T05:05:24.674Z,14.73
2019-05-26T05:08:28.159Z,14.34
2019-05-26T05:11:31.939Z,14.58
2019-05-26T05:14:35.520Z,14.36
2019-05-26T05:17:39.246Z,14.36
2019-05-26T05:20:42.892Z,14.50
2019-05-26T05:23:46.460Z,14.24
2019-05-26T05:26:50.039Z,14.30
2019-05-26T05:29:53.620Z,14.96
2019-05-26T05:32:57.303Z,15.08
2019-05-26T05:36:00.869Z,15.25
2019-05-26T05:39:06.945Z,15.75
2019-05-26T05:42:10.614Z,15.63
2019-05-26T05:45:15.508Z,16.28
2019-05-26T05:48:19.166Z,15.97
2019-05-26T05:51:22.799Z,15.99
2019-05-26T05:54:26.470Z,16.94
2019-05-26T05:57:30.103Z,17.31
2019-05-26T06:00:33.765Z,17.44
2019-05-26T06:03:37.406Z,17.31
2019-05-26T06:06:41.077Z,16.73
2019-05-26T06:09:44.694Z,17.50
2019-05-26T06:12:48.372Z,17.63
2019-05-26T06:15:51.992Z,17.46
2019-05-26T06:18:55.637Z,17.42
2019-05-26T06:21:59.330Z,17.89
2019-05-26T06:25:03.025Z,17.32
2019-05-26T06:28:06.660Z,18.19
2019-05-26T06:31:10.285Z,17.43
2019-05-26T06:34:13.959Z,17.25
2019-05-26T06:37:17.605Z,18.14
2019-05-26T06:40:21.329Z,18.20
2019-05-26T06:43:25.039Z,19.25
2019-05-26T06:46:28.737Z,19.56
2019-05-26T06:49:32.391Z,20.41
2019-05-26T06:52:36.003Z,19.89
2019-05-26T06:55:39.775Z,20.39
2019-05-26T06:58:43.397Z,19.82
2019-05-26T07:01:47.028Z,20.73
2019-05-26T07:04:50.655Z,21.52
2019-05-26T07:07:54.308Z,20.17
2019-05-26T07:10:57.927Z,21.31
2019-05-26T07:14:01.574Z,21.66
2019-05-26T07:17:05.348Z,21.79
2019-05-26T07:20:09.573Z,21.97
2019-05-26T07:23:13.412Z,21.05
2019-05-26T07:26:17.134Z,21.98
2019-05-26T07:29:20.774Z,20.50
2019-05-26T07:32:24.435Z,20.65
2019-05-26T07:35:28.155Z,21.87
2019-05-26T07:38:31.808Z,22.51
2019-05-26T07:41:35.477Z,22.83
2019-05-26T07:44:39.079Z,22.84
2019-05-26T07:47:42.755Z,22.79
2019-05-26T07:50:46.372Z,22.65
2019-05-26T07:53:50.012Z,22.49
2019-05-26T07:56:53.707Z,21.83
2019-05-26T07:59:57.367Z,22.07
2019-05-26T08:03:00.982Z,21.35
2019-05-26T08:06:04.702Z,22.40
2019-05-26T08:09:09.160Z,22.24
2019-05-26T08:12:25.961Z,21.56
2019-05-26T08:15:18.395Z,21.64
2019-05-26T08:18:22.137Z,21.42
2019-05-26T08:21:25.767Z,20.25
2019-05-26T08:24:29.403Z,21.04
2019-05-26T08:27:32.997Z,20.46
2019-05-26T08:30:36.668Z,22.77
2019-05-26T08:33:41.808Z,22.97
2019-05-26T08:36:45.457Z,22.90
2019-05-26T08:39:50.663Z,23.73
2019-05-26T08:42:54.362Z,24.43
2019-05-26T08:45:58.019Z,23.44
2019-05-26T08:49:01.627Z,23.44
2019-05-26T08:52:05.541Z,21.61
2019-05-26T08:55:09.230Z,23.17
2019-05-26T08:58:12.868Z,22.99
2019-05-26T09:01:16.610Z,22.54
2019-05-26T09:04:20.422Z,23.91
2019-05-26T09:07:24.108Z,25.30
2019-05-26T09:13:58.982Z,25.35
2019-05-26T09:17:02.715Z,24.75
2019-05-26T09:20:20.676Z,25.73
2019-05-26T09:23:24.365Z,24.00
2019-05-26T09:26:33.084Z,23.14
2019-05-26T09:29:36.773Z,24.51
2019-05-26T09:32:40.400Z,24.49
2019-05-26T09:35:44.251Z,22.08
2019-05-26T09:38:47.862Z,23.76
2019-05-26T09:42:07.110Z,25.12
2019-05-26T09:45:12.671Z,26.14
2019-05-26T09:48:16.594Z,24.07
2019-05-26T09:51:20.292Z,24.04
2019-05-26T09:54:28.664Z,23.41
2019-05-26T09:57:32.296Z,23.99
2019-05-26T10:00:44.236Z,25.30
2019-05-26T10:03:51.058Z,27.01
2019-05-26T10:06:54.774Z,26.71
2019-05-26T10:09:58.482Z,26.94
2019-05-26T10:13:02.127Z,24.69
2019-05-26T10:16:05.797Z,26.03
2019-05-26T10:19:09.641Z,26.87
2019-05-26T10:22:13.259Z,26.83
2019-05-26T10:25:16.975Z,27.68
2019-05-26T10:28:20.607Z,27.47
2019-05-26T10:31:24.279Z,27.92
2019-05-26T10:34:27.909Z,28.28
2019-05-26T10:37:31.542Z,29.61
2019-05-26T10:40:35.246Z,26.92
2019-05-26T10:43:47.413Z,24.02
2019-05-26T10:46:44.252Z,23.98
2019-05-26T10:49:47.931Z,24.47
2019-05-26T10:52:58.650Z,26.67
2019-05-26T10:56:02.306Z,25.99
2019-05-26T10:59:05.990Z,24.88
2019-05-26T11:02:09.651Z,24.56
2019-05-26T11:05:15.234Z,26.37
2019-05-26T11:08:18.873Z,28.05
2019-05-26T11:11:22.508Z,28.84
2019-05-26T11:14:26.146Z,27.33
2019-05-26T11:17:29.816Z,29.78
2019-05-26T11:20:33.432Z,28.32
2019-05-26T11:23:37.094Z,26.02
2019-05-26T11:26:40.716Z,27.79
2019-05-26T11:29:44.839Z,30.33
2019-05-26T11:32:54.359Z,26.74
2019-05-26T11:40:04.977Z,26.02
2019-05-26T11:47:12.471Z,28.84
2019-05-26T11:50:26.903Z,30.38
2019-05-26T11:54:20.512Z,29.86
2019-05-26T12:15:16.225Z,28.40
2019-05-26T12:18:20.045Z,27.78
2019-05-26T12:21:24.827Z,25.95
2019-05-26T12:24:28.962Z,28.71
2019-05-26T12:27:35.001Z,26.91
2019-05-26T12:30:39.751Z,28.21
2019-05-26T12:33:44.789Z,27.26
2019-05-26T12:36:50.965Z,28.67
2019-05-26T12:39:57.399Z,28.93
2019-05-26T12:43:03.827Z,28.81
2019-05-26T12:46:10.916Z,28.53
2019-05-26T13:10:30.632Z,26.80
2019-05-26T13:13:34.276Z,26.25
2019-05-26T13:16:37.950Z,28.65
2019-05-26T13:19:41.628Z,27.68
2019-05-26T13:22:45.299Z,26.07
2019-05-26T13:25:50.592Z,26.59
2019-05-26T13:28:54.237Z,27.26
2019-05-26T13:31:59.101Z,27.33
2019-05-26T13:35:02.689Z,25.99
2019-05-26T13:38:06.368Z,26.76
2019-05-26T13:41:09.996Z,25.56
2019-05-26T13:44:13.714Z,24.97
2019-05-26T13:47:25.643Z,26.40
2019-05-26T13:50:23.479Z,25.49
2019-05-26T13:53:28.619Z,24.61
2019-05-26T13:56:32.311Z,25.90
2019-05-26T13:59:35.965Z,25.32
2019-05-26T14:02:40.158Z,25.36
2019-05-26T14:05:43.882Z,25.21
2019-05-26T14:08:47.623Z,25.37
2019-05-26T14:11:51.269Z,26.07
2019-05-26T14:14:56.088Z,25.56
2019-05-26T14:18:00.118Z,25.45
2019-05-26T14:21:03.881Z,25.54
2019-05-26T14:24:09.224Z,24.44
2019-05-26T14:27:12.895Z,24.70
2019-05-26T14:30:16.897Z,23.93
2019-05-26T14:33:20.550Z,24.11
2019-05-26T14:39:26.852Z,24.30
2019-05-26T14:42:30.544Z,24.20
2019-05-26T14:45:34.413Z,23.50
2019-05-26T14:48:38.109Z,23.42
2019-05-26T14:51:41.932Z,23.45
2019-05-26T14:54:45.624Z,24.02
2019-05-26T14:57:49.313Z,23.44
2019-05-26T15:00:55.046Z,23.30
2019-05-26T15:03:58.360Z,23.27
2019-05-26T15:07:01.977Z,23.48
2019-05-26T15:10:08.878Z,23.74
2019-05-26T15:13:12.513Z,24.10
2019-05-26T15:16:16.187Z,23.79
2019-05-26T15:19:19.926Z,23.56
2019-05-26T15:22:23.651Z,23.14
2019-05-26T15:25:27.262Z,23.15
2019-05-26T15:28:31.095Z,23.12
2019-05-26T15:31:34.697Z,23.46
2019-05-26T15:34:38.422Z,23.37
2019-05-26T15:37:42.163Z,23.41
2019-05-26T15:40:45.877Z,23.53
2019-05-26T15:43:49.526Z,23.42
2019-05-26T15:46:53.208Z,23.55
2019-05-26T15:49:56.960Z,23.40
2019-05-26T15:53:00.675Z,23.33
2019-05-26T15:56:04.444Z,23.31
2019-05-26T15:59:08.083Z,23.48
2019-05-26T16:02:11.815Z,23.49
2019-05-26T16:05:15.786Z,23.39
2019-05-26T16:08:19.439Z,23.22
2019-05-26T16:11:23.118Z,23.32
2019-05-26T16:14:26.857Z,23.09
2019-05-26T16:17:30.504Z,23.12
2019-05-26T16:20:34.158Z,23.18
2019-05-26T16:23:38.764Z,23.31
2019-05-26T16:26:42.441Z,23.45
2019-05-26T16:29:46.829Z,23.57
2019-05-26T16:32:50.492Z,23.32
2019-05-26T16:35:55.635Z,23.49
2019-05-26T16:38:59.501Z,23.21
2019-05-26T16:42:03.184Z,23.17
2019-05-26T16:45:07.942Z,23.13
2019-05-26T16:48:11.675Z,22.98
2019-05-26T16:51:16.248Z,23.06
2019-05-26T16:54:20.021Z,23.08
2019-05-26T16:57:23.669Z,23.06
2019-05-26T17:00:27.435Z,23.00
2019-05-26T17:03:41.854Z,22.88
2019-05-26T17:06:48.586Z,22.79
2019-05-26T17:09:52.204Z,22.71
2019-05-26T17:12:55.860Z,22.70
2019-05-26T17:15:59.582Z,22.78
2019-05-26T17:19:03.347Z,22.65
2019-05-26T17:22:06.940Z,22.57
2019-05-26T17:25:11.230Z,22.46
2019-05-26T17:28:14.928Z,22.34
2019-05-26T17:31:18.705Z,22.40
2019-05-26T17:34:22.559Z,22.22
2019-05-26T17:37:26.219Z,22.26
2019-05-26T17:40:29.897Z,22.32
2019-05-26T17:43:33.534Z,22.38
2019-05-26T17:46:37.389Z,22.33
2019-05-26T17:49:41.139Z,22.45
2019-05-26T17:52:44.769Z,22.24
2019-05-26T17:55:48.433Z,22.08
2019-05-26T17:58:52.159Z,21.99
2019-05-26T18:01:57.374Z,21.91
2019-05-26T18:05:01.182Z,21.91
2019-05-26T18:08:05.205Z,22.03
2019-05-26T18:11:08.953Z,21.92
2019-05-26T18:14:12.642Z,21.97
2019-05-26T18:17:49.035Z,21.98
2019-05-26T18:20:52.692Z,21.90
2019-05-26T18:23:57.411Z,21.98
2019-05-26T18:27:03.118Z,21.95
2019-05-26T18:30:11.450Z,21.90
2019-05-26T18:33:28.992Z,21.83
2019-05-26T18:36:38.305Z,21.79
2019-05-26T18:39:42.154Z,21.86
2019-05-26T18:42:46.049Z,21.66
2019-05-26T18:45:49.826Z,21.49
2019-05-26T18:48:53.669Z,21.44
2019-05-26T18:51:57.523Z,21.34
2019-05-26T18:55:01.245Z,21.27
2019-05-26T18:58:06.885Z,21.21
2019-05-26T19:01:12.047Z,21.12
2019-05-26T19:04:16.370Z,21.08
2019-05-26T19:07:20.163Z,21.07
2019-05-26T19:10:24.771Z,20.97
2019-05-26T19:13:28.509Z,20.81
2019-05-26T19:16:32.153Z,20.80
2019-05-26T19:19:35.920Z,20.74
2019-05-26T19:22:39.713Z,20.57
2019-05-26T19:25:43.477Z,20.49
2019-05-26T19:28:47.212Z,20.38
2019-05-26T19:31:50.832Z,20.21
2019-05-26T19:34:54.740Z,20.08
2019-05-26T19:37:58.410Z,20.06
2019-05-26T19:41:02.053Z,19.96
2019-05-26T19:44:05.837Z,19.97
2019-05-26T19:47:09.583Z,19.98
2019-05-26T19:50:13.419Z,19.86
2019-05-26T19:53:17.146Z,19.83
2019-05-26T19:56:21.100Z,19.68
2019-05-26T19:59:27.771Z,19.53
2019-05-26T20:02:31.547Z,19.51
2019-05-26T20:05:35.279Z,19.47
2019-05-26T20:08:39.031Z,19.38
2019-05-26T20:11:42.761Z,19.37
2019-05-26T20:14:46.850Z,19.31
2019-05-26T20:17:51.154Z,19.32
2019-05-26T20:20:57.106Z,19.30
2019-05-26T20:24:04.731Z,19.26
2019-05-26T20:27:08.473Z,19.07
2019-05-26T20:30:12.759Z,18.99
2019-05-26T20:33:16.482Z,18.93
2019-05-26T20:36:20.108Z,18.88
2019-05-26T20:39:23.879Z,18.88
2019-05-26T20:42:27.690Z,18.81
2019-05-26T20:45:31.436Z,18.80
2019-05-26T20:48:35.211Z,18.74
2019-05-26T20:51:38.952Z,18.66
2019-05-26T20:54:51.597Z,18.63
2019-05-26T20:57:55.196Z,18.40
2019-05-26T21:00:58.856Z,18.21
2019-05-26T21:04:02.618Z,18.16
2019-05-26T21:07:06.315Z,18.02
2019-05-26T21:10:10.203Z,18.01
2019-05-26T21:13:13.841Z,17.98
2019-05-26T21:16:17.499Z,17.91
2019-05-26T21:19:22.389Z,17.97
2019-05-26T21:22:26.091Z,17.89
2019-05-26T21:25:31.512Z,17.88
2019-05-26T21:28:35.301Z,17.88
2019-05-26T21:31:38.922Z,17.78
2019-05-26T21:34:42.591Z,17.72
2019-05-26T21:37:46.401Z,17.67
2019-05-26T21:40:50.263Z,17.48
2019-05-26T21:43:53.924Z,17.31
2019-05-26T21:46:57.577Z,17.38
2019-05-26T21:50:01.275Z,17.35
2019-05-26T21:53:05.074Z,17.35
2019-05-26T21:56:08.763Z,17.39
2019-05-26T21:59:12.482Z,17.27
2019-05-26T22:02:19.110Z,17.19
2019-05-26T22:05:22.288Z,17.27
2019-05-26T22:08:26.054Z,17.09
2019-05-26T22:11:32.721Z,17.01
2019-05-26T22:14:36.479Z,16.94
2019-05-26T22:17:40.132Z,16.96
2019-05-26T22:20:43.861Z,16.95
2019-05-26T22:23:47.653Z,16.86
2019-05-26T22:26:51.463Z,16.78
2019-05-26T22:29:55.307Z,16.73
2019-05-26T22:32:59.008Z,16.66
2019-05-26T22:36:02.678Z,16.50
2019-05-26T22:39:07.428Z,16.51
2019-05-26T22:42:11.186Z,16.47
2019-05-26T22:45:15.276Z,16.44
2019-05-26T22:48:19.018Z,16.51
2019-05-26T22:51:22.783Z,16.53
2019-05-26T22:54:26.456Z,16.44
2019-05-26T22:57:30.170Z,16.29
2019-05-26T23:00:34.039Z,16.42
2019-05-26T23:03:39.930Z,16.33
2019-05-26T23:06:43.612Z,16.39
2019-05-26T23:09:47.328Z,16.34
2019-05-26T23:12:52.555Z,16.15
2019-05-26T23:15:56.283Z,16.18
2019-05-26T23:18:59.955Z,16.17
2019-05-26T23:22:03.696Z,16.13
2019-05-26T23:25:08.713Z,16.21
2019-05-26T23:28:12.395Z,16.19
2019-05-26T23:31:16.172Z,16.24
2019-05-26T23:34:19.887Z,16.08
2019-05-26T23:37:23.587Z,16.11
2019-05-26T23:40:27.366Z,16.21
2019-05-26T23:43:31.049Z,16.09
2019-05-26T23:46:34.744Z,16.06
2019-05-26T23:49:38.394Z,16.04
2019-05-26T23:52:42.091Z,16.03
2019-05-26T23:55:47.041Z,16.09
2019-05-26T23:58:50.784Z,15.97
